createdAt,value
2022-09-27T00:02:18.676Z,6.35
2022-09-27T00:05:27.314Z,6.24
2022-09-27T00:08:32.952Z,6.25
2022-09-27T00:11:42.889Z,6.24
2022-09-27T00:14:48.392Z,6.10
2022-09-27T00:17:54.066Z,6.01
2022-09-27T00:21:09.716Z,6.03
2022-09-27T00:24:17.937Z,5.96
2022-09-27T00:27:23.641Z,5.89
2022-09-27T00:30:29.510Z,5.69
2022-09-27T00:33:35.124Z,5.31
2022-09-27T00:36:43.302Z,5.15
2022-09-27T00:39:49.018Z,5.09
2022-09-27T00:42:54.469Z,4.98
2022-09-27T00:46:07.062Z,5.03
2022-09-27T00:49:24.958Z,5.03
2022-09-27T00:52:49.078Z,4.82
2022-09-27T00:56:03.241Z,4.78
2022-09-27T00:59:17.430Z,4.81
2022-09-27T01:02:23.380Z,4.78
2022-09-27T01:05:32.345Z,4.78
2022-09-27T01:08:40.558Z,4.92
2022-09-27T01:11:54.742Z,4.96
2022-09-27T01:15:21.032Z,5.00
2022-09-27T01:18:41.341Z,5.04
2022-09-27T01:22:07.040Z,5.09
2022-09-27T01:25:51.319Z,5.21
2022-09-27T01:29:12.775Z,5.41
2022-09-27T01:32:37.388Z,5.45
2022-09-27T01:36:05.543Z,5.50
2022-09-27T01:39:36.724Z,5.48
2022-09-27T01:43:19.808Z,5.61
2022-09-27T01:46:34.759Z,5.63
2022-09-27T01:50:12.924Z,5.71
2022-09-27T01:53:26.900Z,5.67
2022-09-27T01:56:54.821Z,5.62
2022-09-27T02:00:10.703Z,5.52
2022-09-27T02:03:29.293Z,5.33
2022-09-27T02:07:09.260Z,5.37
2022-09-27T02:10:24.351Z,5.21
2022-09-27T02:13:47.776Z,5.08
2022-09-27T02:17:33.403Z,5.11
2022-09-27T02:20:47.950Z,5.15
2022-09-27T02:24:04.167Z,5.03
2022-09-27T02:27:20.031Z,4.65
2022-09-27T02:30:26.093Z,4.54
2022-09-27T02:33:49.148Z,4.64
2022-09-27T02:36:56.471Z,4.63
2022-09-27T02:40:05.281Z,4.54
2022-09-27T02:43:11.185Z,4.63
2022-09-27T02:46:55.909Z,4.51
2022-09-27T02:50:27.263Z,4.49
2022-09-27T02:54:15.083Z,4.12
2022-09-27T02:58:04.440Z,4.03
2022-09-27T03:02:08.568Z,4.03
2022-09-27T03:05:34.047Z,4.13
2022-09-27T03:08:41.478Z,4.20
2022-09-27T03:11:47.101Z,4.05
2022-09-27T03:14:56.349Z,4.05
2022-09-27T03:18:22.052Z,4.12
2022-09-27T03:21:46.409Z,4.09
2022-09-27T03:24:52.895Z,3.90
2022-09-27T03:27:58.481Z,3.89
2022-09-27T03:31:09.298Z,4.18
2022-09-27T03:34:46.791Z,4.38
2022-09-27T03:37:52.335Z,4.30
2022-09-27T03:40:59.349Z,4.25
2022-09-27T03:44:05.303Z,4.36
2022-09-27T03:47:13.978Z,4.42
2022-09-27T03:50:20.780Z,4.13
2022-09-27T03:53:26.513Z,4.08
2022-09-27T03:56:32.212Z,4.27
2022-09-27T03:59:38.447Z,4.14
2022-09-27T04:03:29.418Z,4.14
2022-09-27T04:07:11.550Z,4.24
2022-09-27T04:10:21.930Z,4.19
2022-09-27T04:13:34.613Z,4.10
2022-09-27T04:16:40.343Z,4.12
2022-09-27T04:20:04.885Z,4.04
2022-09-27T04:23:12.789Z,3.93
2022-09-27T04:26:28.782Z,4.00
2022-09-27T04:29:46.145Z,4.08
2022-09-27T04:33:17.740Z,4.17
2022-09-27T04:36:43.873Z,4.33
2022-09-27T04:39:55.443Z,4.33
2022-09-27T04:43:01.003Z,4.45
2022-09-27T04:46:06.803Z,4.56
2022-09-27T04:49:12.540Z,4.59
2022-09-27T04:52:21.134Z,4.55
2022-09-27T04:55:28.769Z,4.55
2022-09-27T04:58:34.685Z,4.61
2022-09-27T05:01:47.154Z,4.62
2022-09-27T05:05:13.803Z,4.78
2022-09-27T05:08:25.503Z,4.99
2022-09-27T05:11:58.457Z,4.94
2022-09-27T05:15:22.698Z,5.09
2022-09-27T05:18:58.032Z,5.10
2022-09-27T05:22:22.378Z,5.44
2022-09-27T05:25:31.732Z,5.56
2022-09-27T05:28:44.247Z,5.51
2022-09-27T05:31:50.185Z,5.54
2022-09-27T05:34:57.974Z,5.54
2022-09-27T05:38:04.973Z,5.53
2022-09-27T05:41:16.856Z,5.70
2022-09-27T05:44:26.266Z,5.79
2022-09-27T05:47:37.942Z,5.66
2022-09-27T05:50:46.017Z,5.81
2022-09-27T05:53:51.829Z,5.94
2022-09-27T05:57:11.720Z,6.00
2022-09-27T06:00:26.200Z,5.75
2022-09-27T06:03:32.079Z,5.80
2022-09-27T06:06:59.263Z,5.68
2022-09-27T06:10:10.326Z,5.94
2022-09-27T06:13:20.211Z,5.99
2022-09-27T06:16:25.868Z,6.03
2022-09-27T06:19:33.444Z,6.31
2022-09-27T06:22:39.517Z,6.29
2022-09-27T06:25:45.828Z,6.42
2022-09-27T06:29:13.207Z,6.85
2022-09-27T06:32:26.255Z,7.24
2022-09-27T06:35:39.407Z,7.39
2022-09-27T06:38:46.945Z,7.60
2022-09-27T06:42:06.126Z,7.91
2022-09-27T06:45:32.892Z,7.91
2022-09-27T06:49:07.803Z,7.95
2022-09-27T06:52:14.406Z,8.52
2022-09-27T06:55:20.742Z,8.98
2022-09-27T06:58:38.731Z,9.33
2022-09-27T07:02:19.107Z,10.13
2022-09-27T07:05:45.175Z,10.03
2022-09-27T07:09:06.926Z,10.06
2022-09-27T07:12:14.523Z,10.77
2022-09-27T07:15:22.310Z,11.11
2022-09-27T07:18:33.939Z,10.39
2022-09-27T07:21:39.906Z,10.68
2022-09-27T07:24:50.258Z,10.70
2022-09-27T07:27:57.577Z,9.95
2022-09-27T07:31:05.343Z,10.40
2022-09-27T07:34:14.020Z,10.69
2022-09-27T07:37:19.603Z,11.11
2022-09-27T07:40:26.830Z,11.52
2022-09-27T07:43:32.756Z,11.45
2022-09-27T07:46:53.613Z,10.80
2022-09-27T07:50:13.282Z,10.61
2022-09-27T07:53:24.489Z,10.37
2022-09-27T07:56:37.223Z,10.44
2022-09-27T07:59:45.531Z,10.38
2022-09-27T08:02:53.789Z,10.35
2022-09-27T08:06:07.335Z,10.46
2022-09-27T08:09:13.007Z,10.92
2022-09-27T08:12:21.773Z,11.39
2022-09-27T08:15:29.112Z,11.78
2022-09-27T08:18:35.427Z,11.31
2022-09-27T08:22:03.675Z,11.31
2022-09-27T08:25:22.687Z,11.29
2022-09-27T08:28:42.333Z,11.10
2022-09-27T08:32:08.867Z,11.38
2022-09-27T08:35:15.861Z,11.24
2022-09-27T08:38:23.988Z,11.40
2022-09-27T08:41:41.802Z,11.64
2022-09-27T08:45:09.188Z,11.64
2022-09-27T08:48:21.851Z,11.47
2022-09-27T08:51:35.523Z,11.52
2022-09-27T08:54:44.272Z,11.68
2022-09-27T08:57:59.427Z,11.97
2022-09-27T09:01:09.964Z,11.76
2022-09-27T09:04:31.435Z,11.99
2022-09-27T09:08:11.423Z,12.35
2022-09-27T09:11:49.855Z,12.36
2022-09-27T09:15:19.356Z,12.41
2022-09-27T09:18:55.983Z,12.53
2022-09-27T09:22:45.108Z,12.86
2022-09-27T09:26:04.810Z,12.93
2022-09-27T09:29:47.164Z,12.84
2022-09-27T09:33:24.086Z,13.11
2022-09-27T09:36:38.085Z,13.75
2022-09-27T09:39:55.165Z,13.97
2022-09-27T09:43:11.817Z,14.71
2022-09-27T09:46:31.778Z,14.38
2022-09-27T09:49:51.321Z,14.60
2022-09-27T09:53:09.035Z,14.80
2022-09-27T09:56:27.351Z,14.73
2022-09-27T09:59:50.155Z,14.22
2022-09-27T10:03:03.740Z,14.36
2022-09-27T10:06:14.055Z,14.34
2022-09-27T10:09:27.653Z,13.73
2022-09-27T10:12:56.168Z,14.01
2022-09-27T10:16:18.221Z,14.10
2022-09-27T10:19:34.536Z,14.77
2022-09-27T10:22:54.678Z,15.30
2022-09-27T10:26:23.488Z,15.55
2022-09-27T10:29:37.883Z,15.92
2022-09-27T10:32:45.779Z,15.53
2022-09-27T10:36:32.009Z,15.76
2022-09-27T10:39:41.585Z,16.20
2022-09-27T10:42:50.004Z,16.13
2022-09-27T10:46:17.818Z,16.07
2022-09-27T10:49:39.547Z,16.16
2022-09-27T10:53:07.800Z,16.44
2022-09-27T10:56:27.965Z,15.99
2022-09-27T10:59:45.934Z,15.88
2022-09-27T11:02:59.487Z,15.18
2022-09-27T11:06:32.348Z,14.69
2022-09-27T11:09:55.582Z,14.38
2022-09-27T11:13:14.687Z,14.61
2022-09-27T11:16:41.703Z,14.64
2022-09-27T11:20:25.275Z,14.53
2022-09-27T11:24:04.324Z,14.61
2022-09-27T11:27:34.586Z,14.64
2022-09-27T11:31:04.093Z,14.51
2022-09-27T11:35:05.661Z,14.56
2022-09-27T11:38:51.572Z,14.67
2022-09-27T11:42:27.187Z,14.24
2022-09-27T11:50:07.634Z,14.46
2022-09-27T11:53:37.189Z,14.52
2022-09-27T11:57:03.072Z,13.87
2022-09-27T12:00:24.849Z,14.03
2022-09-27T12:04:38.601Z,13.79
2022-09-27T12:08:00.778Z,13.67
2022-09-27T12:11:24.333Z,13.80
2022-09-27T12:14:42.840Z,13.61
2022-09-27T12:18:02.103Z,13.61
2022-09-27T12:21:13.943Z,13.45
2022-09-27T12:24:26.098Z,13.52
2022-09-27T12:27:49.515Z,13.63
2022-09-27T12:31:31.781Z,13.35
2022-09-27T12:34:52.536Z,13.08
2022-09-27T12:38:09.023Z,13.23
2022-09-27T12:41:24.063Z,13.30
2022-09-27T12:44:50.521Z,12.99
2022-09-27T12:48:14.206Z,12.91
2022-09-27T12:51:26.977Z,12.87
2022-09-27T12:55:18.627Z,12.80
2022-09-27T12:59:13.737Z,12.60
2022-09-27T13:03:14.630Z,12.87
2022-09-27T13:07:17.612Z,12.69
2022-09-27T13:10:49.324Z,12.71
2022-09-27T13:14:30.420Z,12.57
2022-09-27T13:17:58.538Z,12.49
2022-09-27T13:22:00.290Z,12.61
2022-09-27T13:25:56.056Z,12.82
2022-09-27T13:29:44.307Z,12.56
2022-09-27T13:33:50.356Z,12.72
2022-09-27T13:37:43.251Z,13.00
2022-09-27T13:40:57.103Z,13.19
2022-09-27T13:44:23.782Z,12.96
2022-09-27T13:47:47.291Z,12.98
2022-09-27T13:51:11.842Z,12.77
2022-09-27T13:54:55.882Z,12.70
2022-09-27T13:58:46.750Z,12.47
2022-09-27T14:02:24.778Z,12.36
2022-09-27T14:05:42.528Z,11.39
2022-09-27T14:08:56.648Z,10.83
2022-09-27T14:12:34.337Z,10.46
2022-09-27T14:15:55.480Z,10.02
2022-09-27T14:19:03.350Z,9.92
2022-09-27T14:22:17.853Z,9.74
2022-09-27T14:25:50.325Z,9.59
2022-09-27T14:29:04.477Z,9.51
2022-09-27T14:32:17.449Z,9.49
2022-09-27T14:35:43.451Z,9.37
2022-09-27T14:38:50.156Z,9.34
2022-09-27T14:42:32.628Z,9.36
2022-09-27T14:45:43.574Z,9.38
2022-09-27T14:48:51.076Z,9.40
2022-09-27T14:51:59.795Z,9.47
2022-09-27T14:55:12.054Z,9.49
2022-09-27T14:58:35.945Z,9.56
2022-09-27T15:01:56.459Z,9.57
2022-09-27T15:05:02.379Z,9.63
2022-09-27T15:08:10.072Z,9.68
2022-09-27T15:11:16.232Z,9.84
2022-09-27T15:14:25.673Z,9.84
2022-09-27T15:17:46.333Z,9.96
2022-09-27T15:20:57.771Z,10.07
2022-09-27T15:24:07.677Z,9.95
2022-09-27T15:27:21.873Z,9.76
2022-09-27T15:30:32.236Z,9.68
2022-09-27T15:33:40.791Z,9.71
2022-09-27T15:37:01.242Z,9.71
2022-09-27T15:41:09.759Z,9.69
2022-09-27T15:44:46.279Z,9.71
2022-09-27T15:47:53.602Z,9.59
2022-09-27T15:51:03.385Z,9.41
2022-09-27T15:54:08.925Z,9.06
2022-09-27T15:57:16.101Z,8.93
2022-09-27T16:00:23.961Z,9.10
2022-09-27T16:03:30.652Z,9.23
2022-09-27T16:06:39.163Z,9.25
2022-09-27T16:09:45.385Z,9.25
2022-09-27T16:12:51.202Z,9.09
2022-09-27T16:15:57.254Z,9.24
2022-09-27T16:19:02.774Z,9.28
2022-09-27T16:22:12.329Z,9.37
2022-09-27T16:25:18.191Z,9.30
2022-09-27T16:28:24.511Z,9.14
2022-09-27T16:31:30.579Z,9.03
2022-09-27T16:34:36.319Z,8.98
2022-09-27T16:37:45.527Z,8.87
2022-09-27T16:40:51.294Z,8.75
2022-09-27T16:43:57.265Z,8.77
2022-09-27T16:47:02.983Z,8.74
2022-09-27T16:50:23.056Z,8.78
2022-09-27T16:53:31.519Z,8.79
2022-09-27T16:56:37.945Z,8.76
2022-09-27T16:59:47.530Z,8.77
2022-09-27T17:02:54.102Z,8.91
2022-09-27T17:06:04.599Z,8.84
2022-09-27T17:09:14.173Z,8.96
2022-09-27T17:12:19.894Z,8.92
2022-09-27T17:15:26.249Z,8.97
2022-09-27T17:18:38.954Z,8.79
2022-09-27T17:21:57.234Z,8.86
2022-09-27T17:25:12.820Z,8.74
2022-09-27T17:28:18.529Z,8.82
2022-09-27T17:31:25.805Z,8.83
2022-09-27T17:34:32.568Z,8.87
2022-09-27T17:37:38.418Z,8.82
2022-09-27T17:40:50.487Z,8.74
2022-09-27T17:43:59.417Z,8.76
2022-09-27T17:47:17.551Z,8.72
2022-09-27T17:50:35.510Z,8.80
2022-09-27T17:53:41.145Z,8.69
2022-09-27T17:56:51.028Z,8.65
2022-09-27T17:59:58.089Z,8.70
2022-09-27T18:03:03.766Z,8.88
2022-09-27T18:06:11.709Z,8.84
2022-09-27T18:09:20.102Z,8.89
2022-09-27T18:12:32.366Z,8.71
2022-09-27T18:15:39.432Z,8.65
2022-09-27T18:18:49.410Z,8.66
2022-09-27T18:21:57.588Z,8.72
2022-09-27T18:25:04.268Z,8.47
2022-09-27T18:28:13.902Z,8.55
2022-09-27T18:31:25.830Z,8.51
2022-09-27T18:34:31.962Z,8.60
2022-09-27T18:37:39.408Z,8.47
2022-09-27T18:40:56.060Z,8.52
2022-09-27T18:44:09.406Z,8.54
2022-09-27T18:47:20.017Z,8.43
2022-09-27T18:50:39.656Z,8.46
2022-09-27T18:53:45.901Z,8.42
2022-09-27T18:56:56.578Z,8.53
2022-09-27T19:00:05.669Z,8.54
2022-09-27T19:03:18.517Z,8.58
2022-09-27T19:06:26.697Z,8.52
2022-09-27T19:09:32.413Z,8.43
2022-09-27T19:12:38.136Z,8.48
2022-09-27T19:15:47.578Z,8.54
2022-09-27T19:18:56.428Z,8.56
2022-09-27T19:22:02.518Z,8.55
2022-09-27T19:25:11.094Z,8.59
2022-09-27T19:28:16.807Z,8.59
2022-09-27T19:31:29.805Z,8.58
2022-09-27T19:34:35.613Z,8.74
2022-09-27T19:37:41.244Z,8.68
2022-09-27T19:40:47.026Z,8.74
2022-09-27T19:43:55.489Z,8.61
2022-09-27T19:47:03.688Z,8.63
2022-09-27T19:50:11.164Z,8.65
2022-09-27T19:53:16.886Z,8.68
2022-09-27T19:56:24.076Z,8.63
2022-09-27T19:59:30.166Z,8.77
2022-09-27T20:02:38.351Z,8.80
2022-09-27T20:05:43.966Z,8.66
2022-09-27T20:08:51.381Z,8.70
2022-09-27T20:12:21.431Z,8.71
2022-09-27T20:15:27.209Z,8.60
2022-09-27T20:18:35.457Z,8.45
2022-09-27T20:21:41.385Z,8.36
2022-09-27T20:24:46.968Z,8.41
2022-09-27T20:27:52.510Z,8.39
2022-09-27T20:31:06.590Z,8.48
2022-09-27T20:34:18.012Z,8.49
2022-09-27T20:37:23.592Z,8.50
2022-09-27T20:40:29.207Z,8.63
2022-09-27T20:43:35.072Z,8.67
2022-09-27T20:46:43.622Z,8.74
2022-09-27T20:49:51.757Z,8.73
2022-09-27T20:52:57.363Z,8.54
2022-09-27T20:56:05.511Z,8.44
2022-09-27T20:59:18.602Z,8.51
2022-09-27T21:02:24.731Z,8.49
2022-09-27T21:05:32.959Z,8.54
2022-09-27T21:08:39.093Z,8.52
2022-09-27T21:11:44.743Z,8.51
2022-09-27T21:14:50.287Z,8.45
2022-09-27T21:17:57.363Z,8.53
2022-09-27T21:21:09.673Z,8.60
2022-09-27T21:24:15.599Z,8.58
2022-09-27T21:27:21.098Z,8.56
2022-09-27T21:30:27.914Z,8.60
2022-09-27T21:33:34.071Z,8.55
2022-09-27T21:36:42.442Z,8.63
2022-09-27T21:39:50.423Z,8.73
2022-09-27T21:42:57.846Z,8.68
2022-09-27T21:46:09.643Z,8.62
2022-09-27T21:49:15.327Z,8.54
2022-09-27T21:52:23.412Z,8.53
2022-09-27T21:55:29.089Z,8.59
2022-09-27T21:58:37.732Z,8.36
2022-09-27T22:01:46.026Z,8.35
2022-09-27T22:04:51.845Z,8.51
2022-09-27T22:08:00.017Z,8.55
2022-09-27T22:11:11.323Z,8.52
2022-09-27T22:14:18.359Z,8.50
2022-09-27T22:17:23.917Z,8.57
2022-09-27T22:20:29.501Z,8.60
2022-09-27T22:23:39.137Z,8.55
2022-09-27T22:26:49.611Z,8.58
2022-09-27T22:29:55.215Z,8.60
2022-09-27T22:33:01.135Z,8.61
2022-09-27T22:36:13.372Z,8.53
2022-09-27T22:39:23.485Z,8.57
2022-09-27T22:42:29.000Z,8.58
2022-09-27T22:45:34.643Z,8.58
2022-09-27T22:48:40.595Z,8.52
2022-09-27T22:51:50.637Z,8.48
2022-09-27T22:54:58.777Z,8.47
2022-09-27T22:58:04.415Z,8.48
2022-09-27T23:01:16.763Z,8.56
2022-09-27T23:04:22.619Z,8.57
2022-09-27T23:07:29.128Z,8.56
2022-09-27T23:10:38.037Z,8.46
2022-09-27T23:13:51.130Z,8.37
2022-09-27T23:16:59.683Z,8.29
2022-09-27T23:20:05.914Z,8.31
2022-09-27T23:23:16.785Z,8.37
2022-09-27T23:26:27.169Z,8.36
2022-09-27T23:29:39.545Z,8.31
2022-09-27T23:32:47.698Z,8.28
2022-09-27T23:35:53.271Z,8.31
2022-09-27T23:39:04.078Z,8.26
2022-09-27T23:42:13.526Z,8.22
2022-09-27T23:45:19.552Z,8.27
2022-09-27T23:48:25.154Z,8.30
2022-09-27T23:51:30.681Z,8.32
2022-09-27T23:54:36.263Z,8.27
2022-09-27T23:57:44.521Z,8.15
